Time;durP1;ratioP1;P1;durP2;ratioP2;P2;SDS_P1;SDS_P2;PMS_P1;PMS_P2;Temp;Humidity;BMP_temperature;BMP_pressure;BME280_temperature;BME280_humidity;BME280_pressure;Samples;Min_cycle;Max_cycle;Signal;HPM_P1;HPM_P2
2023/12/06 00:00:06;;;;;;;42.85;21.60;;;;;;;3.42;85.81;100966.28;5067733;28;20449;-74
2023/12/06 00:02:33;;;;;;;39.08;21.05;;;;;;;3.42;86.13;100966.28;5061599;28;20464;-74
2023/12/06 00:04:59;;;;;;;40.13;21.05;;;;;;;3.45;86.11;100971.47;5060716;28;20024;-74
2023/12/06 00:07:24;;;;;;;43.92;22.23;;;;;;;3.45;86.16;100966.25;5062342;28;20024;-74
2023/12/06 00:09:49;;;;;;;44.35;22.35;;;;;;;3.47;86.11;100966.22;5064235;28;20109;-74
2023/12/06 00:12:15;;;;;;;40.75;20.95;;;;;;;3.48;85.91;100970.56;5061125;28;20031;-74
2023/12/06 00:14:40;;;;;;;40.38;20.88;;;;;;;3.49;86.15;100972.28;5067219;28;20039;-74
2023/12/06 00:17:05;;;;;;;42.05;20.88;;;;;;;3.47;85.94;100974.06;5063952;28;20024;-74
2023/12/06 00:19:31;;;;;;;39.42;20.00;;;;;;;3.46;85.94;100981.06;5061553;28;20056;-74
2023/12/06 00:21:56;;;;;;;39.95;20.65;;;;;;;3.48;86.12;100973.19;5063312;28;20105;-74
2023/12/06 00:24:21;;;;;;;45.72;22.00;;;;;;;3.47;85.94;100974.94;5064262;28;20021;-74
2023/12/06 00:26:48;;;;;;;41.35;20.48;;;;;;;3.50;85.92;100985.38;5063457;28;20056;-74
2023/12/06 00:29:13;;;;;;;41.20;20.10;;;;;;;3.50;85.92;100985.38;5064713;28;20388;-74
2023/12/06 00:31:39;;;;;;;41.17;20.75;;;;;;;3.50;86.00;100985.38;5068593;28;20020;-74
2023/12/06 00:34:04;;;;;;;49.92;22.17;;;;;;;3.53;85.96;100989.69;5066220;28;20445;-74
2023/12/06 00:36:29;;;;;;;43.97;21.67;;;;;;;3.53;86.05;100989.69;5062490;28;20021;-74
2023/12/06 00:38:55;;;;;;;44.13;21.20;;;;;;;3.54;85.90;100991.41;5061542;28;20039;-74
2023/12/06 00:41:22;;;;;;;48.17;22.65;;;;;;;3.55;86.10;100998.41;5061568;28;20020;-74
2023/12/06 00:43:51;;;;;;;44.83;22.42;;;;;;;3.55;86.37;101004.50;5063007;28;20037;-74
2023/12/06 00:46:17;;;;;;;45.28;22.42;;;;;;;3.55;86.28;101007.09;5060222;28;20071;-74
2023/12/06 00:48:42;;;;;;;42.15;20.98;;;;;;;3.54;86.32;101005.38;5062067;28;20024;-74
2023/12/06 00:51:08;;;;;;;44.08;21.90;;;;;;;3.55;86.25;101009.72;5065418;28;20086;-74
2023/12/06 00:53:33;;;;;;;44.55;21.58;;;;;;;3.55;86.40;101012.34;5062033;28;20028;-74
2023/12/06 00:55:59;;;;;;;43.08;21.45;;;;;;;3.53;86.56;101015.81;5065438;28;20052;-74
2023/12/06 00:58:24;;;;;;;47.30;22.02;;;;;;;3.53;86.48;101014.06;5063115;28;20063;-74
2023/12/06 01:00:50;;;;;;;46.20;22.83;;;;;;;3.55;86.67;101022.78;5064603;28;20055;-74
2023/12/06 01:03:15;;;;;;;53.45;23.15;;;;;;;3.53;86.72;101028.91;5056135;28;20115;-74
2023/12/06 01:05:41;;;;;;;50.58;22.38;;;;;;;3.54;86.63;101026.28;5068694;28;20020;-71
2023/12/06 01:08:06;;;;;;;44.75;21.67;;;;;;;3.55;86.85;101027.16;5061286;28;20032;-71
2023/12/06 01:10:31;;;;;;;43.22;20.67;;;;;;;3.55;86.88;101033.25;5067179;28;20467;-71
2023/12/06 01:12:57;;;;;;;44.03;22.30;;;;;;;3.56;86.64;101036.72;5064117;28;20494;-71
2023/12/06 01:15:22;;;;;;;41.00;21.65;;;;;;;3.54;87.04;101036.75;5066054;28;20459;-71
2023/12/06 01:17:47;;;;;;;45.42;21.10;;;;;;;3.53;87.16;101036.75;5066408;28;20029;-71
2023/12/06 01:20:13;;;;;;;40.67;20.30;;;;;;;3.52;87.07;101048.94;5066877;28;20108;-71
2023/12/06 01:22:38;;;;;;;42.90;20.42;;;;;;;3.54;87.05;101043.69;5060885;28;20024;-71
2023/12/06 01:25:04;;;;;;;37.00;19.17;;;;;;;3.57;86.77;101044.53;5065536;28;20111;-71
2023/12/06 01:27:29;;;;;;;42.78;20.10;;;;;;;3.56;86.84;101050.66;5072644;28;20027;-71
2023/12/06 01:29:55;;;;;;;42.17;21.23;;;;;;;3.55;86.87;101048.06;5068298;28;20520;-71
2023/12/06 01:32:21;;;;;;;39.78;20.35;;;;;;;3.52;87.01;101054.16;5070962;28;20017;-71
2023/12/06 01:34:46;;;;;;;47.15;21.40;;;;;;;3.50;87.01;101055.09;5064273;28;20025;-71
2023/12/06 01:37:12;;;;;;;39.95;19.85;;;;;;;3.50;86.79;101066.41;5068027;28;20035;-71
2023/12/06 01:39:37;;;;;;;35.75;19.05;;;;;;;3.51;86.77;101062.03;5059607;28;20074;-71
2023/12/06 01:42:03;;;;;;;40.25;20.48;;;;;;;3.52;86.60;101069.84;5071122;28;20017;-71
2023/12/06 01:44:28;;;;;;;45.15;21.73;;;;;;;3.52;86.68;101069.00;5069909;28;20013;-71
2023/12/06 01:46:54;;;;;;;41.15;20.70;;;;;;;3.55;86.69;101067.22;5068744;28;20051;-71
2023/12/06 01:49:20;;;;;;;40.08;21.00;;;;;;;3.62;86.46;101080.25;5070091;28;20025;-71
2023/12/06 01:51:45;;;;;;;39.75;20.35;;;;;;;3.60;86.81;101084.63;5061077;28;20039;-71
2023/12/06 01:54:11;;;;;;;38.90;19.25;;;;;;;3.63;86.60;101080.22;5069948;28;20047;-71
2023/12/06 01:56:38;;;;;;;40.53;19.83;;;;;;;3.61;86.70;101079.38;5067841;28;20045;-71
2023/12/06 01:59:07;;;;;;;40.38;19.77;;;;;;;3.63;86.61;101076.75;5069745;28;20036;-71
2023/12/06 02:01:34;;;;;;;38.92;19.23;;;;;;;3.64;86.46;101079.38;5063404;28;20065;-71
2023/12/06 02:03:59;;;;;;;39.53;20.15;;;;;;;3.62;86.73;101081.09;5061977;28;20037;-71
2023/12/06 02:06:25;;;;;;;36.97;20.10;;;;;;;3.65;86.52;101090.69;5065664;28;20082;-71
2023/12/06 02:08:52;;;;;;;37.88;18.45;;;;;;;3.62;86.49;101088.94;5066229;28;20035;-71
2023/12/06 02:11:17;;;;;;;34.10;18.85;;;;;;;3.64;86.55;101100.28;5069114;28;20422;-71
2023/12/06 02:13:43;;;;;;;37.30;18.60;;;;;;;3.63;86.71;101098.53;5068020;28;20024;-71
2023/12/06 02:16:09;;;;;;;35.50;18.25;;;;;;;3.65;86.82;101093.31;5061845;28;20079;-74
2023/12/06 02:18:35;;;;;;;35.33;18.33;;;;;;;3.62;86.75;101096.78;5067226;28;20033;-74
2023/12/06 02:21:01;;;;;;;35.10;18.77;;;;;;;3.61;86.65;101102.03;5057441;28;20121;-74
2023/12/06 02:23:33;;;;;;;34.67;18.40;;;;;;;3.61;86.74;101099.44;5067611;28;20032;-74
2023/12/06 02:25:58;;;;;;;30.83;17.17;;;;;;;3.62;86.71;101109.00;5068825;28;20032;-71
2023/12/06 02:28:24;;;;;;;32.47;18.77;;;;;;;3.61;86.99;101102.03;5062306;28;20024;-71
2023/12/06 02:30:49;;;;;;;31.08;17.98;;;;;;;3.61;86.77;101112.50;5072419;28;20017;-71
2023/12/06 02:33:14;;;;;;;31.15;17.08;;;;;;;3.60;86.81;101101.19;5066085;28;20119;-71
2023/12/06 02:35:46;;;;;;;32.88;18.13;;;;;;;3.62;87.12;101106.38;5064164;28;20067;-74
2023/12/06 02:38:15;;;;;;;29.10;16.92;;;;;;;3.62;86.92;101103.78;5069241;28;20040;-74
2023/12/06 02:40:42;;;;;;;33.05;17.70;;;;;;;3.62;86.54;101109.00;5065993;28;20032;-74
2023/12/06 02:43:08;;;;;;;35.17;18.60;;;;;;;3.62;86.86;101106.38;5067439;28;20024;-74
2023/12/06 02:45:33;;;;;;;32.22;17.90;;;;;;;3.60;86.85;101102.94;5069427;28;20384;-71
2023/12/06 02:47:59;;;;;;;30.65;17.10;;;;;;;3.60;86.97;101105.53;5070328;28;20025;-71
2023/12/06 02:50:24;;;;;;;35.22;18.10;;;;;;;3.59;86.97;101096.84;5065457;28;20471;-71
2023/12/06 02:52:49;;;;;;;30.88;17.58;;;;;;;3.60;87.06;101095.09;5069570;28;20509;-71
2023/12/06 02:55:15;;;;;;;30.60;16.55;;;;;;;3.60;87.20;101100.31;5066668;28;20050;-71
2023/12/06 02:57:40;;;;;;;32.65;17.10;;;;;;;3.61;87.28;101110.75;5060683;28;20042;-71
2023/12/06 03:00:07;;;;;;;31.40;17.17;;;;;;;3.62;87.40;101109.88;5063706;28;20025;-71
2023/12/06 03:02:32;;;;;;;26.90;15.30;;;;;;;3.63;87.08;101116.81;5065911;28;20102;-71
2023/12/06 03:04:58;;;;;;;30.80;17.08;;;;;;;3.67;87.07;101120.28;5061634;28;20021;-71
2023/12/06 03:07:23;;;;;;;29.65;16.40;;;;;;;3.67;86.93;101110.69;5064865;28;20074;-71
2023/12/06 03:09:49;;;;;;;29.23;16.55;;;;;;;3.57;87.34;101101.19;5059608;28;20028;-71
2023/12/06 03:12:15;;;;;;;26.63;16.10;;;;;;;3.69;87.31;101110.72;5065132;28;20020;-71
2023/12/06 03:14:43;;;;;;;28.33;17.02;;;;;;;3.75;87.24;101105.41;5059562;28;20489;-72
2023/12/06 03:17:08;;;;;;;31.80;15.65;;;;;;;3.73;87.16;101101.94;5059580;28;20020;-71
2023/12/06 03:19:34;;;;;;;26.30;15.95;;;;;;;3.76;87.02;101102.78;5057847;28;20414;-71
2023/12/06 03:21:59;;;;;;;28.83;16.48;;;;;;;3.74;87.14;101101.94;5058079;28;20460;-71
2023/12/06 03:24:24;;;;;;;30.02;15.93;;;;;;;3.73;87.86;101107.16;5064632;28;20036;-71
2023/12/06 03:26:50;;;;;;;24.40;14.90;;;;;;;3.73;87.40;101113.28;5062700;28;20060;-71
2023/12/06 03:29:15;;;;;;;29.17;16.75;;;;;;;3.73;87.66;101122.84;5060988;28;20059;-71
2023/12/06 03:31:41;;;;;;;27.70;17.00;;;;;;;3.73;87.45;101121.13;5065303;28;20063;-71
2023/12/06 03:34:06;;;;;;;28.25;15.73;;;;;;;3.75;87.46;101126.34;5061761;28;20029;-71
2023/12/06 03:36:32;;;;;;;25.83;15.98;;;;;;;3.76;87.53;101128.06;5065457;28;20024;-71
2023/12/06 03:38:57;;;;;;;30.30;16.73;;;;;;;3.76;87.44;101126.31;5070461;28;20028;-71
2023/12/06 03:41:22;;;;;;;24.95;16.02;;;;;;;3.77;87.55;101129.78;5055802;28;20025;-71
2023/12/06 03:43:48;;;;;;;28.35;15.77;;;;;;;3.76;87.80;101133.28;5066328;28;20021;-71
2023/12/06 03:46:13;;;;;;;30.23;16.40;;;;;;;3.78;87.50;101139.41;5060900;28;20388;-71
2023/12/06 03:48:39;;;;;;;28.95;15.95;;;;;;;3.79;87.42;101138.50;5057447;28;20392;-71
2023/12/06 03:51:04;;;;;;;24.40;14.90;;;;;;;3.81;87.68;101132.38;5062121;28;20036;-72
2023/12/06 03:53:30;;;;;;;27.35;15.30;;;;;;;3.82;87.86;101139.38;5065604;28;20043;-71
2023/12/06 03:55:55;;;;;;;27.80;16.38;;;;;;;3.87;87.74;101139.34;5058257;28;20075;-74
2023/12/06 03:58:21;;;;;;;24.70;15.07;;;;;;;3.89;87.46;101136.69;5059887;28;20087;-74
2023/12/06 04:00:46;;;;;;;26.77;15.23;;;;;;;3.94;87.37;101142.75;5058691;28;20460;-74
2023/12/06 04:03:12;;;;;;;25.75;15.23;;;;;;;3.95;87.55;101147.09;5063614;28;20086;-74
2023/12/06 04:05:42;;;;;;;27.90;15.15;;;;;;;3.97;87.25;101143.59;5061766;28;20079;-74
2023/12/06 04:08:09;;;;;;;27.05;15.95;;;;;;;3.97;87.24;101154.06;5056561;28;20024;-74
2023/12/06 04:10:34;;;;;;;20.95;13.55;;;;;;;3.93;87.56;101149.72;5066353;28;20059;-74
2023/12/06 04:12:59;;;;;;;26.08;15.18;;;;;;;3.89;87.95;101152.38;5058620;28;20612;-74
2023/12/06 04:15:25;;;;;;;24.95;14.68;;;;;;;3.97;87.72;101158.44;5066846;28;20024;-74
2023/12/06 04:17:50;;;;;;;23.73;14.45;;;;;;;4.04;87.51;101162.72;5061974;28;20539;-74
2023/12/06 04:20:17;;;;;;;24.63;15.55;;;;;;;4.03;87.48;101164.47;5067362;28;20020;-74
2023/12/06 04:22:43;;;;;;;23.58;14.65;;;;;;;4.05;87.56;101161.84;5068189;28;20123;-74
2023/12/06 04:25:08;;;;;;;24.80;15.45;;;;;;;4.04;87.57;101162.72;5059995;28;20156;-74
2023/12/06 04:27:33;;;;;;;27.17;15.20;;;;;;;4.06;87.84;101167.06;5053077;28;20031;-74
2023/12/06 04:29:59;;;;;;;26.08;14.75;;;;;;;4.05;87.51;101160.06;5062418;28;20078;-74
2023/12/06 04:32:24;;;;;;;21.40;13.73;;;;;;;4.08;87.39;101167.03;5057303;28;20036;-74
2023/12/06 04:34:54;;;;;;;28.10;15.40;;;;;;;4.08;87.74;101161.81;5056971;28;20037;-71
2023/12/06 04:37:20;;;;;;;23.75;14.48;;;;;;;4.08;87.83;101167.03;5066614;28;20025;-71
2023/12/06 04:39:45;;;;;;;23.23;14.75;;;;;;;4.08;87.68;101170.53;5064677;28;20677;-71
2023/12/06 04:42:10;;;;;;;26.58;14.88;;;;;;;4.13;87.59;101169.63;5062214;28;20105;-72
2023/12/06 04:44:37;;;;;;;25.92;14.27;;;;;;;4.15;87.87;101167.84;5062001;28;20032;-71
2023/12/06 04:47:02;;;;;;;23.25;14.15;;;;;;;4.18;87.47;101180.91;5065011;28;20052;-71
2023/12/06 04:49:28;;;;;;;23.80;14.93;;;;;;;4.20;87.48;101177.44;5058487;28;20475;-72
2023/12/06 04:51:53;;;;;;;23.23;14.85;;;;;;;4.27;87.17;101183.47;5061859;28;20036;-71
2023/12/06 04:54:19;;;;;;;23.13;14.32;;;;;;;4.26;87.30;101173.88;5063325;28;20013;-71
2023/12/06 04:56:44;;;;;;;27.42;16.08;;;;;;;4.26;87.28;101173.88;5066822;28;20131;-71
2023/12/06 04:59:09;;;;;;;24.33;14.13;;;;;;;4.29;87.11;101174.72;5060598;28;20032;-72
2023/12/06 05:01:34;;;;;;;24.75;15.00;;;;;;;4.33;87.19;101179.03;5062367;28;20032;-71
2023/12/06 05:04:00;;;;;;;24.77;14.88;;;;;;;4.35;87.33;101186.88;5065021;28;20027;-71
2023/12/06 05:06:25;;;;;;;29.83;15.60;;;;;;;4.38;87.32;101185.97;5067451;28;20027;-71
2023/12/06 05:08:50;;;;;;;27.30;14.82;;;;;;;4.37;87.38;101190.34;5062981;28;20104;-71
2023/12/06 05:11:16;;;;;;;25.05;15.13;;;;;;;4.35;87.20;101187.75;5056581;28;20091;-71
2023/12/06 05:13:41;;;;;;;23.63;13.93;;;;;;;4.37;87.65;101190.34;5064378;28;20021;-71
2023/12/06 05:16:07;;;;;;;27.88;15.30;;;;;;;4.35;87.56;101192.97;5059342;28;20028;-74
2023/12/06 05:18:32;;;;;;;28.00;15.88;;;;;;;4.36;87.64;101196.47;5064044;28;20364;-74
2023/12/06 05:20:57;;;;;;;26.77;15.25;;;;;;;4.38;87.79;101205.16;5061284;28;20214;-74
2023/12/06 05:23:23;;;;;;;29.38;15.85;;;;;;;4.38;87.89;101199.91;5057904;28;20082;-74
2023/12/06 05:25:49;;;;;;;29.27;15.77;;;;;;;4.42;87.78;101203.38;5062069;28;20082;-71
2023/12/06 05:28:14;;;;;;;25.02;15.85;;;;;;;4.45;87.93;101204.22;5060180;28;20123;-71
2023/12/06 05:30:39;;;;;;;24.77;14.27;;;;;;;4.49;87.69;101205.94;5066598;28;20032;-71
2023/12/06 05:33:07;;;;;;;28.83;15.43;;;;;;;4.48;87.89;101214.69;5065195;28;20527;-71
2023/12/06 05:35:33;;;;;;;27.27;16.17;;;;;;;4.48;87.67;101209.47;5061599;28;20411;-71
2023/12/06 05:37:58;;;;;;;24.40;15.38;;;;;;;4.51;88.09;101201.56;5062166;28;20024;-71
2023/12/06 05:40:23;;;;;;;23.98;14.63;;;;;;;4.53;87.84;101206.78;5067344;28;20020;-71
2023/12/06 05:42:49;;;;;;;26.17;15.43;;;;;;;4.53;87.90;101207.66;5065749;28;20024;-71
2023/12/06 05:45:15;;;;;;;27.00;15.60;;;;;;;4.52;88.16;101218.13;5062662;28;20032;-71
2023/12/06 05:47:40;;;;;;;24.75;14.88;;;;;;;4.53;88.03;101218.13;5061177;28;20036;-71
2023/12/06 05:50:06;;;;;;;27.30;15.68;;;;;;;4.54;88.26;101208.53;5054975;28;20023;-71
2023/12/06 05:52:32;;;;;;;29.20;15.95;;;;;;;4.56;88.11;101217.22;5064473;28;20075;-71
2023/12/06 05:54:59;;;;;;;27.35;15.45;;;;;;;4.63;88.04;101218.91;5069619;28;20451;-71
2023/12/06 05:57:25;;;;;;;29.33;16.08;;;;;;;4.62;88.19;101222.41;5058536;28;20140;-71
2023/12/06 05:59:50;;;;;;;28.17;16.55;;;;;;;4.63;88.10;101220.66;5073936;28;20155;-71
2023/12/06 06:02:15;;;;;;;24.98;15.52;;;;;;;4.64;88.08;101220.63;5060036;28;20519;-71
2023/12/06 06:04:41;;;;;;;29.63;16.65;;;;;;;4.65;88.26;101224.97;5058787;28;20451;-71
2023/12/06 06:07:06;;;;;;;31.48;16.02;;;;;;;4.66;88.32;101233.72;5058064;28;20477;-71
2023/12/06 06:09:31;;;;;;;31.38;16.83;;;;;;;4.66;88.17;101225.84;5063164;28;20094;-70
2023/12/06 06:11:57;;;;;;;28.00;15.70;;;;;;;4.71;88.02;101227.56;5057454;28;20070;-71
2023/12/06 06:14:22;;;;;;;27.88;15.77;;;;;;;4.69;88.14;101228.44;5068175;28;20029;-71
2023/12/06 06:16:48;;;;;;;26.77;15.50;;;;;;;4.70;88.40;101225.81;5062064;28;20385;-71
2023/12/06 06:19:13;;;;;;;29.67;15.70;;;;;;;4.71;88.55;101230.19;5071563;28;20119;-71
2023/12/06 06:21:38;;;;;;;28.52;16.27;;;;;;;4.71;88.52;101231.91;5067393;28;20392;-71
2023/12/06 06:24:04;;;;;;;25.05;15.70;;;;;;;4.76;88.19;101240.63;5058444;28;20430;-71
2023/12/06 06:26:29;;;;;;;24.10;14.45;;;;;;;4.78;88.25;101244.06;5065415;28;20111;-71
2023/12/06 06:28:54;;;;;;;24.48;15.25;;;;;;;4.79;88.02;101248.44;5060218;28;20551;-71
2023/12/06 06:31:20;;;;;;;27.02;15.80;;;;;;;4.81;87.96;101244.06;5064100;28;20440;-71
2023/12/06 06:33:45;;;;;;;26.67;15.40;;;;;;;4.81;87.85;101246.69;5059235;28;20045;-71
2023/12/06 06:36:11;;;;;;;25.27;15.57;;;;;;;4.80;88.22;101252.78;5064492;28;20032;-70
2023/12/06 06:38:37;;;;;;;26.23;14.98;;;;;;;4.82;87.79;101262.38;5061279;28;20028;-71
2023/12/06 06:41:03;;;;;;;25.50;15.15;;;;;;;4.82;87.97;101272.84;5062429;28;20503;-71
2023/12/06 06:43:28;;;;;;;25.00;13.82;;;;;;;4.83;88.05;101263.22;5066924;28;20033;-70
2023/12/06 06:45:54;;;;;;;24.88;14.20;;;;;;;4.83;88.01;101269.34;5061350;28;20028;-71
2023/12/06 06:48:19;;;;;;;25.20;14.13;;;;;;;4.82;87.99;101269.34;5063805;28;20032;-71
2023/12/06 06:50:45;;;;;;;25.27;12.98;;;;;;;4.85;87.99;101274.59;5055986;28;20036;-71
2023/12/06 06:53:11;;;;;;;20.58;12.98;;;;;;;4.85;87.71;101271.97;5070743;28;20013;-71
2023/12/06 06:55:37;;;;;;;23.63;14.95;;;;;;;4.87;88.01;101272.81;5063180;28;20036;-71
2023/12/06 06:58:03;;;;;;;21.92;13.48;;;;;;;4.88;87.96;101276.28;5066819;28;20433;-71
2023/12/06 07:00:28;;;;;;;23.10;14.13;;;;;;;4.86;87.68;101279.78;5068463;28;20031;-71
2023/12/06 07:02:54;;;;;;;21.58;13.32;;;;;;;4.87;87.75;101280.66;5064440;28;20025;-71
2023/12/06 07:05:19;;;;;;;22.55;13.68;;;;;;;4.86;87.75;101282.41;5060454;28;20047;-70
2023/12/06 07:07:44;;;;;;;25.02;14.05;;;;;;;4.89;87.50;101284.13;5063064;28;20052;-71
2023/12/06 07:10:10;;;;;;;21.48;13.57;;;;;;;4.90;87.68;101278.03;5061975;28;20070;-70
2023/12/06 07:12:37;;;;;;;25.50;14.88;;;;;;;4.90;87.62;101287.63;5059461;28;20017;-70
2023/12/06 07:15:03;;;;;;;23.00;13.85;;;;;;;4.90;87.85;101295.50;5060255;28;20503;-70
2023/12/06 07:17:29;;;;;;;23.02;14.38;;;;;;;4.89;87.81;101286.75;5059693;28;20475;-71
2023/12/06 07:19:55;;;;;;;28.55;15.05;;;;;;;4.90;87.74;101288.50;5060376;28;20568;-70
2023/12/06 07:22:21;;;;;;;24.92;13.68;;;;;;;4.93;87.83;101284.97;5062694;28;20103;-71
2023/12/06 07:24:47;;;;;;;25.13;13.75;;;;;;;4.98;87.74;101294.50;5059351;28;20028;-71
2023/12/06 07:27:12;;;;;;;23.20;13.05;;;;;;;5.03;87.40;101289.22;5062754;28;20392;-71
2023/12/06 07:29:38;;;;;;;20.55;13.70;;;;;;;5.02;87.23;101297.97;5057155;28;20419;-71
2023/12/06 07:32:03;;;;;;;27.88;14.75;;;;;;;5.02;87.44;101297.97;5063800;28;20365;-71
2023/12/06 07:34:29;;;;;;;28.90;14.27;;;;;;;5.02;87.49;101300.59;5069333;28;20027;-70
2023/12/06 07:36:54;;;;;;;25.40;14.02;;;;;;;5.00;87.07;101298.00;5059502;28;20071;-71
2023/12/06 07:39:20;;;;;;;22.98;14.40;;;;;;;4.92;87.24;101307.69;5054366;28;20051;-71
2023/12/06 07:41:46;;;;;;;27.52;13.95;;;;;;;4.79;87.25;101308.66;5055599;28;20393;-71
2023/12/06 07:44:12;;;;;;;23.38;13.95;;;;;;;4.71;87.49;101313.09;5053148;28;20111;-71
2023/12/06 07:46:38;;;;;;;23.80;14.05;;;;;;;4.63;87.34;101320.16;5056715;28;20031;-71
2023/12/06 07:49:03;;;;;;;25.25;14.32;;;;;;;4.55;87.56;101312.38;5056850;28;20128;-70
2023/12/06 07:51:29;;;;;;;24.63;13.48;;;;;;;4.50;87.53;101319.38;5064518;28;20107;-71
2023/12/06 07:53:56;;;;;;;26.45;14.15;;;;;;;4.46;87.77;101313.31;5064257;28;20056;-70
2023/12/06 07:56:21;;;;;;;25.00;14.60;;;;;;;4.45;87.94;101319.41;5059894;28;20053;-74
2023/12/06 07:58:46;;;;;;;27.90;15.27;;;;;;;4.46;88.32;101321.16;5062728;28;20040;-74
2023/12/06 08:01:12;;;;;;;27.45;14.25;;;;;;;4.39;88.26;101321.22;5054564;28;20021;-73
2023/12/06 08:03:37;;;;;;;24.30;13.75;;;;;;;4.38;88.55;101322.94;5056693;28;20482;-73
2023/12/06 08:06:05;;;;;;;24.58;14.98;;;;;;;4.36;88.24;101335.19;5062273;28;20028;-73
2023/12/06 08:08:31;;;;;;;27.13;15.05;;;;;;;4.39;88.41;101339.56;5063262;28;20078;-73
2023/12/06 08:10:56;;;;;;;27.40;14.45;;;;;;;4.43;88.53;101326.44;5064523;28;20036;-73
2023/12/06 08:13:24;;;;;;;23.75;14.25;;;;;;;4.46;88.40;101336.00;5061568;28;20029;-73
2023/12/06 08:15:49;;;;;;;24.38;14.60;;;;;;;4.44;88.30;101329.91;5059055;28;20044;-73
2023/12/06 08:18:15;;;;;;;30.25;14.60;;;;;;;4.42;88.53;101343.00;5057299;28;20032;-74
2023/12/06 08:20:40;;;;;;;27.73;15.77;;;;;;;4.44;88.42;101351.72;5050540;28;20044;-73
2023/12/06 08:23:05;;;;;;;28.25;14.73;;;;;;;4.50;88.37;101343.81;5060899;28;20067;-73
2023/12/06 08:25:31;;;;;;;28.40;15.55;;;;;;;4.55;88.49;101349.88;5061529;28;20099;-73
2023/12/06 08:27:57;;;;;;;28.38;15.82;;;;;;;4.90;88.30;101354.00;5060475;28;20098;-73
2023/12/06 08:30:22;;;;;;;29.27;15.38;;;;;;;5.11;87.45;101356.41;5062492;28;20057;-73
2023/12/06 08:32:48;;;;;;;32.67;16.35;;;;;;;5.29;86.90;101352.75;5056688;28;21154;-73
2023/12/06 08:35:13;;;;;;;28.33;15.57;;;;;;;5.42;86.65;101363.97;5053938;28;20063;-73
2023/12/06 08:37:40;;;;;;;32.13;16.05;;;;;;;5.55;86.44;101368.22;5055557;28;20283;-73
2023/12/06 08:40:08;;;;;;;24.52;14.63;;;;;;;5.66;85.41;101367.22;5052049;28;20496;-74
2023/12/06 08:42:34;;;;;;;23.70;14.38;;;;;;;5.60;85.51;101376.91;5061163;28;20399;-73
2023/12/06 08:44:59;;;;;;;23.10;14.18;;;;;;;5.57;85.52;101361.19;5066330;28;20571;-74
2023/12/06 08:47:25;;;;;;;28.85;17.33;;;;;;;5.58;85.48;101364.66;5066205;28;20123;-73
2023/12/06 08:49:50;;;;;;;29.05;17.45;;;;;;;5.57;85.57;101374.28;5057252;28;20029;-73
2023/12/06 08:52:15;;;;;;;27.73;18.27;;;;;;;5.84;85.05;101373.13;5060349;28;20096;-74
2023/12/06 08:54:41;;;;;;;31.15;17.50;;;;;;;6.02;84.84;101369.44;5063661;28;20055;-74
2023/12/06 08:57:06;;;;;;;32.65;16.25;;;;;;;6.10;83.99;101377.19;5064580;28;20118;-74
2023/12/06 08:59:32;;;;;;;26.70;14.73;;;;;;;6.21;83.30;101380.56;5064212;28;20056;-74
2023/12/06 09:01:57;;;;;;;20.50;13.95;;;;;;;6.14;82.68;101386.75;5056623;28;20020;-70
2023/12/06 09:04:23;;;;;;;23.75;13.32;;;;;;;6.25;82.32;101381.34;5061679;28;20036;-75
2023/12/06 09:06:48;;;;;;;22.90;13.23;;;;;;;6.33;82.36;101383.00;5059625;28;20051;-72
2023/12/06 09:09:17;;;;;;;25.98;13.52;;;;;;;6.32;81.96;101391.75;5057420;28;20025;-72
2023/12/06 09:11:43;;;;;;;22.17;12.50;;;;;;;6.75;80.94;101398.16;5056801;28;20400;-71
2023/12/06 09:14:09;;;;;;;22.08;13.40;;;;;;;7.14;79.47;101394.88;5061095;28;20016;-71
2023/12/06 09:16:34;;;;;;;23.63;12.68;;;;;;;7.38;78.66;101397.97;5054345;28;20029;-74
2023/12/06 09:18:59;;;;;;;22.83;12.57;;;;;;;8.11;76.92;101395.66;5061363;28;20060;-74
2023/12/06 09:21:26;;;;;;;23.52;12.57;;;;;;;9.21;74.26;101395.75;5062647;28;20024;-74
2023/12/06 09:23:52;;;;;;;18.55;12.13;;;;;;;10.62;70.72;101399.69;5058972;28;20035;-74
2023/12/06 09:26:17;;;;;;;17.75;10.70;;;;;;;11.92;66.04;101395.28;5054300;28;20051;-74
2023/12/06 09:28:42;;;;;;;15.73;9.93;;;;;;;12.75;60.85;101400.94;5056900;28;20048;-74
2023/12/06 09:31:08;;;;;;;14.63;9.23;;;;;;;13.36;58.51;101408.19;5063879;28;20103;-74
2023/12/06 09:33:33;;;;;;;14.50;9.40;;;;;;;13.88;57.02;101405.91;5067348;28;20445;-74
2023/12/06 09:35:59;;;;;;;13.82;8.85;;;;;;;14.57;55.10;101403.59;5061339;28;20463;-74
2023/12/06 09:38:24;;;;;;;15.38;8.63;;;;;;;15.10;54.29;101402.75;5064100;28;20103;-74
2023/12/06 09:40:49;;;;;;;12.32;8.38;;;;;;;15.66;51.42;101404.34;5059100;28;20035;-74
2023/12/06 09:43:18;;;;;;;15.45;7.80;;;;;;;16.18;49.99;101406.94;5062180;28;20056;-74
2023/12/06 09:45:44;;;;;;;9.18;6.82;;;;;;;16.43;48.83;101410.91;5064173;28;20040;-74
2023/12/06 09:48:09;;;;;;;12.85;7.43;;;;;;;16.89;47.98;101414.56;5065285;28;20047;-74
2023/12/06 09:50:35;;;;;;;12.35;7.45;;;;;;;17.17;46.90;101419.16;5061685;28;20237;-74
2023/12/06 09:53:00;;;;;;;10.63;7.68;;;;;;;17.73;44.93;101422.97;5064453;28;20414;-74
2023/12/06 09:55:28;;;;;;;9.20;7.35;;;;;;;17.87;44.74;101421.25;5063518;28;20039;-74
2023/12/06 09:57:54;;;;;;;9.95;6.82;;;;;;;17.71;44.63;101424.81;5059817;28;20492;-74
2023/12/06 10:00:21;;;;;;;9.98;7.22;;;;;;;17.75;44.04;101434.41;5059185;28;20480;-74
2023/12/06 10:02:55;;;;;;;10.57;6.63;;;;;;;18.17;44.89;101446.09;5067618;28;20028;-74
2023/12/06 10:05:21;;;;;;;15.65;7.95;;;;;;;16.96;47.19;101444.44;5060266;28;21796;-74
2023/12/06 10:07:47;;;;;;;11.68;6.60;;;;;;;17.17;44.39;101437.88;5060221;28;20032;-73
2023/12/06 10:10:15;;;;;;;10.68;7.00;;;;;;;17.83;44.85;101429.47;5054354;28;20495;-74
2023/12/06 10:12:52;;;;;;;10.93;6.53;;;;;;;18.70;43.99;101433.84;5064460;28;20017;-74
2023/12/06 10:15:18;;;;;;;11.75;6.93;;;;;;;19.24;39.82;101433.00;5056656;28;20036;-74
2023/12/06 10:17:44;;;;;;;11.00;6.88;;;;;;;18.72;42.20;101434.59;5060068;28;20048;-74
2023/12/06 10:20:09;;;;;;;10.15;6.88;;;;;;;19.17;40.58;101432.56;5066863;28;20079;-74
2023/12/06 10:22:35;;;;;;;10.00;6.80;;;;;;;19.82;39.15;101431.75;5059132;28;20028;-74
2023/12/06 10:25:01;;;;;;;7.85;5.63;;;;;;;20.08;37.63;101438.81;5061070;28;20089;-74
2023/12/06 10:27:29;;;;;;;10.57;6.70;;;;;;;20.01;37.28;101434.84;5060834;28;20031;-74
2023/12/06 10:29:54;;;;;;;10.40;6.90;;;;;;;19.22;37.35;101434.94;5062008;28;20484;-74
2023/12/06 10:32:21;;;;;;;9.82;7.22;;;;;;;17.78;40.80;101434.25;5059045;28;20031;-74
2023/12/06 10:34:47;;;;;;;12.48;6.82;;;;;;;16.46;41.81;101432.06;5064439;28;20385;-75
2023/12/06 10:37:19;;;;;;;10.93;7.20;;;;;;;15.55;46.08;101425.34;5060218;28;20094;-74
2023/12/06 10:39:49;;;;;;;9.55;7.13;;;;;;;15.87;45.51;101438.84;5063351;28;20503;-74
2023/12/06 10:42:21;;;;;;;11.18;6.82;;;;;;;15.22;46.25;101427.94;5059276;28;20017;-74
2023/12/06 10:44:47;;;;;;;;;;;;;;;15.18;50.41;101437.88;5062782;28;20029;-74
2023/12/06 10:47:12;;;;;;;9.77;7.43;;;;;;;14.28;49.05;101436.88;5054469;28;19919;-74
2023/12/06 10:49:39;;;;;;;12.45;7.05;;;;;;;13.21;50.96;101431.78;5058312;28;20124;-74
2023/12/06 10:52:05;;;;;;;13.63;7.00;;;;;;;12.59;51.67;101424.56;5055178;28;20036;-74
2023/12/06 10:54:30;;;;;;;10.15;7.63;;;;;;;11.99;53.93;101432.13;5063699;28;20100;-74
2023/12/06 10:56:56;;;;;;;11.02;7.68;;;;;;;11.45;55.00;101430.47;5058613;28;20607;-75
2023/12/06 10:59:31;;;;;;;10.77;6.88;;;;;;;11.16;56.43;101426.16;5058743;28;20024;-74
2023/12/06 11:01:57;;;;;;;13.27;7.97;;;;;;;12.28;53.97;101426.66;5053520;28;20115;-74
2023/12/06 11:04:32;;;;;;;9.57;7.57;;;;;;;12.49;55.53;101421.38;5064192;28;20029;-74
2023/12/06 11:07:19;;;;;;;12.10;7.57;;;;;;;11.94;53.93;101423.47;5065347;28;20031;-74
2023/12/06 11:10:15;;;;;;;11.32;7.68;;;;;;;11.62;56.51;101426.38;5062012;28;20456;-74